createdAt,value
2019-03-16T00:00:21.744Z,20.35
2019-03-16T00:01:21.825Z,20.35
2019-03-16T00:02:21.727Z,20.36
2019-03-16T00:03:21.715Z,20.35
2019-03-16T00:04:21.699Z,20.36
2019-03-16T00:05:21.826Z,20.36
2019-03-16T00:06:21.678Z,20.38
2019-03-16T00:07:32.423Z,20.36
2019-03-16T00:08:22.688Z,20.36
2019-03-16T00:09:21.647Z,20.35
2019-03-16T00:10:21.668Z,20.36
2019-03-16T00:11:21.629Z,20.38
2019-03-16T00:12:21.665Z,20.36
2019-03-16T00:13:21.601Z,20.36
2019-03-16T00:14:21.597Z,20.36
2019-03-16T00:15:21.587Z,20.35
2019-03-16T00:16:21.591Z,20.36
2019-03-16T00:17:23.754Z,20.38
2019-03-16T00:18:21.580Z,20.36
2019-03-16T00:19:21.544Z,20.38
2019-03-16T00:20:21.528Z,20.36
2019-03-16T00:21:21.518Z,20.36
2019-03-16T00:22:21.506Z,20.36
2019-03-16T00:23:21.548Z,20.38
2019-03-16T00:24:21.531Z,20.36
2019-03-16T00:25:21.471Z,20.38
2019-03-16T00:26:21.465Z,20.36
2019-03-16T00:27:21.452Z,20.35
2019-03-16T00:28:21.540Z,20.38
2019-03-16T00:29:21.436Z,20.35
2019-03-16T00:30:21.486Z,20.36
2019-03-16T00:31:21.467Z,20.36
2019-03-16T00:32:21.430Z,20.38
2019-03-16T00:33:21.392Z,20.39
2019-03-16T00:34:21.383Z,20.36
2019-03-16T00:35:21.367Z,20.36
2019-03-16T00:36:21.383Z,20.38
2019-03-16T00:37:21.347Z,20.36
2019-03-16T00:38:23.498Z,20.36
2019-03-16T00:39:21.322Z,20.38
2019-03-16T00:40:21.320Z,20.36
2019-03-16T00:41:21.303Z,20.36
2019-03-16T00:42:21.313Z,20.36
2019-03-16T00:43:21.279Z,20.36
2019-03-16T00:44:21.337Z,20.38
2019-03-16T00:45:21.273Z,20.38
2019-03-16T00:46:21.245Z,20.36
2019-03-16T00:47:21.275Z,20.36
2019-03-16T00:48:21.225Z,20.38
2019-03-16T00:49:21.217Z,20.38
2019-03-16T00:50:21.203Z,20.38
2019-03-16T00:51:21.200Z,20.38
2019-03-16T00:52:21.191Z,20.38
2019-03-16T00:53:21.201Z,20.36
2019-03-16T00:54:21.160Z,20.38
2019-03-16T00:55:21.152Z,20.38
2019-03-16T00:56:21.140Z,20.38
2019-03-16T00:57:21.407Z,20.38
2019-03-16T00:58:21.123Z,20.38
2019-03-16T00:59:21.113Z,20.38
2019-03-16T01:00:21.107Z,20.38
2019-03-16T01:01:21.086Z,20.38
2019-03-16T01:02:27.080Z,20.38
2019-03-16T01:03:22.151Z,20.39
2019-03-16T01:04:21.053Z,20.38
2019-03-16T01:05:21.063Z,20.36
2019-03-16T01:06:21.036Z,20.38
2019-03-16T01:07:21.024Z,20.38
2019-03-16T01:08:21.010Z,20.38
2019-03-16T01:09:21.045Z,20.38
2019-03-16T01:10:20.990Z,20.38
2019-03-16T01:11:20.984Z,20.38
2019-03-16T01:12:20.969Z,20.38
2019-03-16T01:13:20.980Z,20.38
2019-03-16T01:14:20.952Z,20.38
2019-03-16T01:15:20.967Z,20.39
2019-03-16T01:16:20.929Z,20.36
2019-03-16T01:17:20.919Z,20.36
2019-03-16T01:18:20.912Z,20.38
2019-03-16T01:19:20.904Z,20.38
2019-03-16T01:20:20.922Z,20.36
2019-03-16T01:21:20.879Z,20.36
2019-03-16T01:22:20.868Z,20.36
2019-03-16T01:23:20.855Z,20.36
2019-03-16T01:24:20.841Z,20.36
2019-03-16T01:25:20.835Z,20.38
2019-03-16T01:26:20.874Z,20.36
2019-03-16T01:27:20.806Z,20.38
2019-03-16T01:28:20.800Z,20.36
2019-03-16T01:29:20.792Z,20.38
2019-03-16T01:30:20.777Z,20.36
2019-03-16T01:31:20.768Z,20.36
2019-03-16T01:32:20.803Z,20.36
2019-03-16T01:33:20.752Z,20.38
2019-03-16T01:34:20.736Z,20.36
2019-03-16T01:35:20.721Z,20.36
2019-03-16T01:36:20.719Z,20.36
2019-03-16T01:37:20.703Z,20.38
2019-03-16T01:38:20.720Z,20.38
2019-03-16T01:39:20.692Z,20.36
2019-03-16T01:40:20.672Z,20.36
2019-03-16T01:41:20.660Z,20.38
2019-03-16T01:42:20.649Z,20.36
2019-03-16T01:43:20.672Z,20.38
2019-03-16T01:44:20.663Z,20.38
2019-03-16T01:45:20.614Z,20.38
2019-03-16T01:46:20.606Z,20.38
2019-03-16T01:47:20.593Z,20.36
2019-03-16T01:48:20.586Z,20.38
2019-03-16T01:49:20.572Z,20.36
2019-03-16T01:50:21.813Z,20.38
2019-03-16T01:51:20.558Z,20.36
2019-03-16T01:52:20.539Z,20.38
2019-03-16T01:53:20.536Z,20.38
2019-03-16T01:54:20.524Z,20.38
2019-03-16T01:55:20.507Z,20.36
2019-03-16T01:56:20.772Z,20.36
2019-03-16T01:57:20.487Z,20.38
2019-03-16T01:58:20.480Z,20.38
2019-03-16T01:59:20.469Z,20.36
2019-03-16T02:00:20.453Z,20.38
2019-03-16T02:01:20.452Z,20.38
2019-03-16T02:02:20.471Z,20.36
2019-03-16T02:03:20.420Z,20.38
2019-03-16T02:04:20.412Z,20.38
2019-03-16T02:05:20.403Z,20.38
2019-03-16T02:06:20.385Z,20.38
2019-03-16T02:07:20.377Z,20.38
2019-03-16T02:08:20.668Z,20.38
2019-03-16T02:09:20.358Z,20.38
2019-03-16T02:10:20.351Z,20.38
2019-03-16T02:11:20.352Z,20.38
2019-03-16T02:12:20.328Z,20.38
2019-03-16T02:13:20.316Z,20.38
2019-03-16T02:14:20.333Z,20.38
2019-03-16T02:15:20.294Z,20.38
2019-03-16T02:16:20.280Z,20.38
2019-03-16T02:17:20.274Z,20.38
2019-03-16T02:18:20.264Z,20.39
2019-03-16T02:19:20.265Z,20.38
2019-03-16T02:20:20.519Z,20.38
2019-03-16T02:21:20.231Z,20.38
2019-03-16T02:22:20.217Z,20.38
2019-03-16T02:23:20.204Z,20.38
2019-03-16T02:24:20.196Z,20.39
2019-03-16T02:25:20.182Z,20.38
2019-03-16T02:26:20.198Z,20.38
2019-03-16T02:27:20.159Z,20.38
2019-03-16T02:28:20.161Z,20.39
2019-03-16T02:29:20.139Z,20.38
2019-03-16T02:30:20.130Z,20.38
2019-03-16T02:31:20.419Z,20.38
2019-03-16T02:32:20.182Z,20.39
2019-03-16T02:33:20.098Z,20.39
2019-03-16T02:34:20.099Z,20.38
2019-03-16T02:35:20.073Z,20.38
2019-03-16T02:36:20.062Z,20.39
2019-03-16T02:37:20.184Z,20.38
2019-03-16T02:38:20.041Z,20.41
2019-03-16T02:39:20.037Z,20.38
2019-03-16T02:40:20.021Z,20.38
2019-03-16T02:41:20.010Z,20.39
2019-03-16T02:42:19.997Z,20.39
2019-03-16T02:43:20.032Z,20.39
2019-03-16T02:44:19.978Z,20.38
2019-03-16T02:45:19.970Z,20.38
2019-03-16T02:46:19.953Z,20.38
2019-03-16T02:47:19.947Z,20.39
2019-03-16T02:48:19.938Z,20.39
2019-03-16T02:49:20.173Z,20.38
2019-03-16T02:50:19.917Z,20.38
2019-03-16T02:51:19.933Z,20.39
2019-03-16T02:52:19.897Z,20.36
2019-03-16T02:53:19.881Z,20.38
2019-03-16T02:54:19.875Z,20.36
2019-03-16T02:55:19.886Z,20.36
2019-03-16T02:56:19.874Z,20.36
2019-03-16T02:57:19.855Z,20.38
2019-03-16T02:58:19.839Z,20.38
2019-03-16T02:59:19.820Z,20.36
2019-03-16T03:00:19.839Z,20.36
2019-03-16T03:01:19.796Z,20.38
2019-03-16T03:02:19.789Z,20.35
2019-03-16T03:03:29.384Z,20.38
2019-03-16T03:04:20.766Z,20.36
2019-03-16T03:05:19.752Z,20.38
2019-03-16T03:06:19.790Z,20.38
2019-03-16T03:07:19.754Z,20.36
2019-03-16T03:08:19.718Z,20.38
2019-03-16T03:09:19.712Z,20.36
2019-03-16T03:10:19.704Z,20.38
2019-03-16T03:11:19.690Z,20.36
2019-03-16T03:12:19.717Z,20.38
2019-03-16T03:13:19.676Z,20.38
2019-03-16T03:14:19.652Z,20.38
2019-03-16T03:15:19.647Z,20.36
2019-03-16T03:16:19.632Z,20.38
2019-03-16T03:17:19.623Z,20.38
2019-03-16T03:18:19.652Z,20.38
2019-03-16T03:19:19.604Z,20.38
2019-03-16T03:20:19.614Z,20.38
2019-03-16T03:21:19.578Z,20.38
2019-03-16T03:22:19.570Z,20.38
2019-03-16T03:23:19.556Z,20.38
2019-03-16T03:24:19.593Z,20.38
2019-03-16T03:25:19.542Z,20.36
2019-03-16T03:26:19.525Z,20.38
2019-03-16T03:27:19.513Z,20.36
2019-03-16T03:28:19.531Z,20.36
2019-03-16T03:29:19.495Z,20.38
2019-03-16T03:30:19.545Z,20.38
2019-03-16T03:31:19.474Z,20.38
2019-03-16T03:32:19.472Z,20.36
2019-03-16T03:33:19.451Z,20.38
2019-03-16T03:34:19.453Z,20.38
2019-03-16T03:35:19.425Z,20.38
2019-03-16T03:36:19.450Z,20.38
2019-03-16T03:37:19.408Z,20.36
2019-03-16T03:38:19.436Z,20.36
2019-03-16T03:39:19.383Z,20.38
2019-03-16T03:40:19.372Z,20.38
2019-03-16T03:41:19.360Z,20.36
2019-03-16T03:42:19.349Z,20.38
2019-03-16T03:43:19.361Z,20.38
2019-03-16T03:44:19.366Z,20.36
2019-03-16T03:45:19.319Z,20.38
2019-03-16T03:46:19.308Z,20.38
2019-03-16T03:47:19.304Z,20.38
2019-03-16T03:48:19.286Z,20.38
2019-03-16T03:49:19.281Z,20.38
2019-03-16T03:50:19.310Z,20.39
2019-03-16T03:51:19.260Z,20.38
2019-03-16T03:52:19.243Z,20.36
2019-03-16T03:53:19.297Z,20.39
2019-03-16T03:54:19.224Z,20.39
2019-03-16T03:55:19.212Z,20.38
2019-03-16T03:56:19.231Z,20.38
2019-03-16T03:57:19.197Z,20.38
2019-03-16T03:58:19.180Z,20.38
2019-03-16T03:59:19.178Z,20.38
2019-03-16T04:00:19.158Z,20.38
2019-03-16T04:01:19.178Z,20.38
2019-03-16T04:02:19.144Z,20.36
2019-03-16T04:03:19.131Z,20.38
2019-03-16T04:04:19.125Z,20.38
2019-03-16T04:05:19.107Z,20.38
2019-03-16T04:06:19.193Z,20.38
2019-03-16T04:07:20.459Z,20.38
2019-03-16T04:08:19.071Z,20.38
2019-03-16T04:09:19.065Z,20.38
2019-03-16T04:10:19.057Z,20.38
2019-03-16T04:11:19.047Z,20.39
2019-03-16T04:12:19.315Z,20.38
2019-03-16T04:13:19.017Z,20.39
2019-03-16T04:14:19.007Z,20.38
2019-03-16T04:15:19.003Z,20.38
2019-03-16T04:16:19.015Z,20.38
2019-03-16T04:17:18.976Z,20.38
2019-03-16T04:18:18.993Z,20.36
2019-03-16T04:19:18.957Z,20.39
2019-03-16T04:20:18.989Z,20.38
2019-03-16T04:21:18.936Z,20.36
2019-03-16T04:22:18.927Z,20.39
2019-03-16T04:23:18.925Z,20.38
2019-03-16T04:24:18.917Z,20.36
2019-03-16T04:25:18.889Z,20.38
2019-03-16T04:26:18.925Z,20.36
2019-03-16T04:27:18.866Z,20.36
2019-03-16T04:28:18.856Z,20.38
2019-03-16T04:29:18.849Z,20.39
2019-03-16T04:30:18.838Z,20.36
2019-03-16T04:31:18.858Z,20.38
2019-03-16T04:32:18.819Z,20.36
2019-03-16T04:33:18.803Z,20.36
2019-03-16T04:34:29.070Z,20.38
2019-03-16T04:35:19.788Z,20.38
2019-03-16T04:36:18.823Z,20.38
2019-03-16T04:37:18.760Z,20.38
2019-03-16T04:38:18.755Z,20.38
2019-03-16T04:39:18.754Z,20.38
2019-03-16T04:40:18.731Z,20.38
2019-03-16T04:41:18.717Z,20.38
2019-03-16T04:42:18.744Z,20.38
2019-03-16T04:43:18.695Z,20.38
2019-03-16T04:44:18.685Z,20.39
2019-03-16T04:45:18.674Z,20.36
2019-03-16T04:46:18.667Z,20.38
2019-03-16T04:47:18.649Z,20.39
2019-03-16T04:48:18.705Z,20.39
2019-03-16T04:49:18.643Z,20.38
2019-03-16T04:50:18.629Z,20.38
2019-03-16T04:51:18.608Z,20.38
2019-03-16T04:52:18.631Z,20.38
2019-03-16T04:53:18.590Z,20.38
2019-03-16T04:54:18.581Z,20.38
2019-03-16T04:55:18.567Z,20.38
2019-03-16T04:56:18.559Z,20.38
2019-03-16T04:57:18.549Z,20.38
2019-03-16T04:58:18.569Z,20.39
2019-03-16T04:59:18.534Z,20.39
2019-03-16T05:00:18.554Z,20.39
2019-03-16T05:01:18.503Z,20.38
2019-03-16T05:02:18.493Z,20.39
2019-03-16T05:03:18.483Z,20.39
2019-03-16T05:04:18.470Z,20.38
2019-03-16T05:05:18.469Z,20.39
2019-03-16T05:06:18.486Z,20.39
2019-03-16T05:07:18.486Z,20.39
2019-03-16T05:08:18.432Z,20.38
2019-03-16T05:09:18.424Z,20.39
2019-03-16T05:10:18.410Z,20.38
2019-03-16T05:11:18.398Z,20.39
2019-03-16T05:12:18.408Z,20.38
2019-03-16T05:13:18.407Z,20.39
2019-03-16T05:14:18.364Z,20.38
2019-03-16T05:15:18.351Z,20.39
2019-03-16T05:16:18.344Z,20.38
2019-03-16T05:17:18.330Z,20.39
2019-03-16T05:18:18.322Z,20.39
2019-03-16T05:19:18.337Z,20.38
2019-03-16T05:20:18.308Z,20.38
2019-03-16T05:21:18.295Z,20.39
2019-03-16T05:22:18.304Z,20.38
2019-03-16T05:23:18.268Z,20.39
2019-03-16T05:24:18.291Z,20.39
2019-03-16T05:25:18.247Z,20.39
2019-03-16T05:26:18.338Z,20.38
2019-03-16T05:27:18.226Z,20.38
2019-03-16T05:28:18.213Z,20.41
2019-03-16T05:29:18.250Z,20.39
2019-03-16T05:30:18.193Z,20.39
2019-03-16T05:31:18.183Z,20.39
2019-03-16T05:32:18.176Z,20.38
2019-03-16T05:33:18.170Z,20.38
2019-03-16T05:34:18.153Z,20.38
2019-03-16T05:35:18.199Z,20.38
2019-03-16T05:36:18.134Z,20.39
2019-03-16T05:37:18.121Z,20.39
2019-03-16T05:38:18.107Z,20.36
2019-03-16T05:39:18.094Z,20.39
2019-03-16T05:40:18.091Z,20.38
2019-03-16T05:41:18.106Z,20.38
2019-03-16T05:42:18.068Z,20.38
2019-03-16T05:43:18.058Z,20.38
2019-03-16T05:44:18.130Z,20.38
2019-03-16T05:45:18.044Z,20.38
2019-03-16T05:46:18.068Z,20.38
2019-03-16T05:47:18.014Z,20.39
2019-03-16T05:48:17.997Z,20.38
2019-03-16T05:49:17.994Z,20.38
2019-03-16T05:50:17.980Z,20.38
2019-03-16T05:51:17.970Z,20.38
2019-03-16T05:52:17.985Z,20.38
2019-03-16T05:53:17.943Z,20.39
2019-03-16T05:54:17.967Z,20.39
2019-03-16T05:55:17.921Z,20.39
2019-03-16T05:56:17.915Z,20.38
2019-03-16T05:57:17.903Z,20.39
2019-03-16T05:58:18.016Z,20.39
2019-03-16T05:59:17.888Z,20.38
2019-03-16T06:00:17.872Z,20.39
2019-03-16T06:01:17.861Z,20.38
2019-03-16T06:02:17.853Z,20.38
2019-03-16T06:03:17.840Z,20.38
2019-03-16T06:04:17.859Z,20.39
2019-03-16T06:05:17.822Z,20.39
2019-03-16T06:06:17.804Z,20.38
2019-03-16T06:07:17.801Z,20.39
2019-03-16T06:08:17.789Z,20.39
2019-03-16T06:09:18.079Z,20.38
2019-03-16T06:10:17.762Z,20.38
2019-03-16T06:11:17.753Z,20.39
2019-03-16T06:12:17.760Z,20.39
2019-03-16T06:13:17.755Z,20.38
2019-03-16T06:14:17.722Z,20.39
2019-03-16T06:15:18.015Z,20.39
2019-03-16T06:16:17.700Z,20.39
2019-03-16T06:17:17.701Z,20.38
2019-03-16T06:18:17.699Z,20.38
2019-03-16T06:19:17.666Z,20.38
2019-03-16T06:20:17.650Z,20.39
2019-03-16T06:21:17.682Z,20.39
2019-03-16T06:22:17.630Z,20.39
2019-03-16T06:23:17.628Z,20.38
2019-03-16T06:24:17.616Z,20.39
2019-03-16T06:25:17.598Z,20.39
2019-03-16T06:26:17.589Z,20.39
2019-03-16T06:27:17.607Z,20.38
2019-03-16T06:28:17.572Z,20.39
2019-03-16T06:29:17.589Z,20.39
2019-03-16T06:30:20.677Z,20.39
2019-03-16T06:31:17.552Z,20.39
2019-03-16T06:32:17.531Z,20.39
2019-03-16T06:33:17.513Z,20.39
2019-03-16T06:34:17.502Z,20.38
2019-03-16T06:35:24.661Z,20.39
2019-03-16T06:36:18.487Z,20.39
2019-03-16T06:37:17.474Z,20.39
2019-03-16T06:38:17.469Z,20.38
2019-03-16T06:39:17.457Z,20.39
2019-03-16T06:40:17.445Z,20.36
2019-03-16T06:41:17.484Z,20.38
2019-03-16T06:42:17.417Z,20.38
2019-03-16T06:43:17.412Z,20.38
2019-03-16T06:44:17.402Z,20.39
2019-03-16T06:45:17.393Z,20.38
2019-03-16T06:46:17.378Z,20.38
2019-03-16T06:47:17.392Z,20.38
2019-03-16T06:48:17.357Z,20.36
2019-03-16T06:49:17.346Z,20.38
2019-03-16T06:50:17.342Z,20.36
2019-03-16T06:51:17.327Z,20.38
2019-03-16T06:52:17.341Z,20.36
2019-03-16T06:53:19.609Z,20.38
2019-03-16T06:54:17.295Z,20.38
2019-03-16T06:55:17.280Z,20.36
2019-03-16T06:56:17.299Z,20.38
2019-03-16T06:57:17.262Z,20.38
2019-03-16T06:58:17.247Z,20.38
2019-03-16T06:59:17.238Z,20.38
2019-03-16T07:00:17.260Z,20.38
2019-03-16T07:01:17.214Z,20.36
2019-03-16T07:02:17.237Z,20.36
2019-03-16T07:03:17.194Z,20.36
2019-03-16T07:04:17.192Z,20.36
2019-03-16T07:05:20.729Z,20.35
2019-03-16T07:06:18.160Z,20.36
2019-03-16T07:07:17.156Z,20.38
2019-03-16T07:08:17.146Z,20.36
2019-03-16T07:09:17.136Z,20.36
2019-03-16T07:10:17.125Z,20.36
2019-03-16T07:11:17.146Z,20.36
2019-03-16T07:12:17.098Z,20.38
2019-03-16T07:13:17.086Z,20.36
2019-03-16T07:14:17.109Z,20.36
2019-03-16T07:15:17.068Z,20.36
2019-03-16T07:16:17.057Z,20.38
2019-03-16T07:17:17.093Z,20.36
2019-03-16T07:18:17.037Z,20.38
2019-03-16T07:19:17.023Z,20.36
2019-03-16T07:20:17.010Z,20.38
2019-03-16T07:21:17.001Z,20.36
2019-03-16T07:22:16.990Z,20.38
2019-03-16T07:23:17.426Z,20.36
2019-03-16T07:24:16.968Z,20.38
2019-03-16T07:25:16.967Z,20.36
2019-03-16T07:26:16.949Z,20.35
2019-03-16T07:27:26.092Z,20.36
2019-03-16T07:28:17.953Z,20.36
2019-03-16T07:29:17.222Z,20.36
2019-03-16T07:30:16.906Z,20.38
2019-03-16T07:31:16.895Z,20.38
2019-03-16T07:32:16.889Z,20.36
2019-03-16T07:33:16.877Z,20.38
2019-03-16T07:34:16.864Z,20.38
2019-03-16T07:35:17.151Z,20.38
2019-03-16T07:36:16.840Z,20.38
2019-03-16T07:37:16.858Z,20.38
2019-03-16T07:38:16.818Z,20.39
2019-03-16T07:39:16.813Z,20.38
2019-03-16T07:40:16.804Z,20.38
2019-03-16T07:41:16.821Z,20.39
2019-03-16T07:42:16.776Z,20.39
2019-03-16T07:43:16.770Z,20.39
2019-03-16T07:44:16.763Z,20.41
2019-03-16T07:45:16.787Z,20.39
2019-03-16T07:46:16.738Z,20.39
2019-03-16T07:47:16.729Z,20.38
2019-03-16T07:48:16.714Z,20.39
2019-03-16T07:49:16.703Z,20.39
2019-03-16T07:50:16.712Z,20.38
2019-03-16T07:51:16.707Z,20.38
2019-03-16T07:52:16.672Z,20.39
2019-03-16T07:53:16.666Z,20.38
2019-03-16T07:54:16.652Z,20.39
2019-03-16T07:55:16.643Z,20.38
2019-03-16T07:56:16.626Z,20.38
2019-03-16T07:57:16.652Z,20.39
2019-03-16T07:58:16.607Z,20.39
2019-03-16T07:59:16.601Z,20.39
2019-03-16T08:00:16.608Z,20.39
2019-03-16T08:01:16.577Z,20.38
2019-03-16T08:02:16.562Z,20.39
2019-03-16T08:03:16.591Z,20.38
2019-03-16T08:04:16.541Z,20.38
2019-03-16T08:05:19.240Z,20.41
2019-03-16T08:06:16.527Z,20.39
2019-03-16T08:07:16.523Z,20.38
2019-03-16T08:08:16.540Z,20.39
2019-03-16T08:09:16.647Z,20.39
2019-03-16T08:10:16.481Z,20.39
2019-03-16T08:11:16.499Z,20.39
2019-03-16T08:12:16.455Z,20.39
2019-03-16T08:13:16.761Z,20.41
2019-03-16T08:14:16.445Z,20.39
2019-03-16T08:15:16.431Z,20.41
2019-03-16T08:16:16.414Z,20.39
2019-03-16T08:17:16.408Z,20.39
2019-03-16T08:18:16.395Z,20.39
2019-03-16T08:19:17.247Z,20.39
2019-03-16T08:20:16.399Z,20.39
2019-03-16T08:21:16.360Z,20.39
2019-03-16T08:22:16.356Z,20.39
2019-03-16T08:23:16.352Z,20.39
2019-03-16T08:24:16.326Z,20.41
2019-03-16T08:25:16.345Z,20.39
2019-03-16T08:26:16.312Z,20.39
2019-03-16T08:27:16.302Z,20.39
2019-03-16T08:28:16.291Z,20.39
2019-03-16T08:29:16.275Z,20.39
2019-03-16T08:30:16.292Z,20.38
2019-03-16T08:31:16.276Z,20.39
2019-03-16T08:32:16.244Z,20.39
2019-03-16T08:33:16.235Z,20.39
2019-03-16T08:34:16.224Z,20.39
2019-03-16T08:35:16.211Z,20.39
2019-03-16T08:36:16.240Z,20.41
2019-03-16T08:37:16.257Z,20.41
2019-03-16T08:38:16.185Z,20.41
2019-03-16T08:39:16.168Z,20.39
2019-03-16T08:40:16.157Z,20.41
2019-03-16T08:41:16.148Z,20.41
2019-03-16T08:42:16.454Z,20.41
2019-03-16T08:43:16.128Z,20.39
2019-03-16T08:44:16.116Z,20.39
2019-03-16T08:45:16.105Z,20.41
2019-03-16T08:46:16.098Z,20.39
2019-03-16T08:47:16.084Z,20.38
2019-03-16T08:48:22.776Z,20.41
2019-03-16T08:49:17.059Z,20.39
2019-03-16T08:50:16.053Z,20.41
2019-03-16T08:51:16.037Z,20.41
2019-03-16T08:52:16.030Z,20.41
2019-03-16T08:53:16.026Z,20.41
2019-03-16T08:54:16.037Z,20.41
2019-03-16T08:55:16.000Z,20.41
2019-03-16T08:56:15.989Z,20.42
2019-03-16T08:57:15.989Z,20.41
2019-03-16T08:58:15.976Z,20.43
2019-03-16T08:59:15.953Z,20.42
2019-03-16T09:00:15.971Z,20.42
2019-03-16T09:01:15.932Z,20.42
2019-03-16T09:02:15.923Z,20.43
2019-03-16T09:03:15.912Z,20.43
2019-03-16T09:04:15.898Z,20.43
2019-03-16T09:05:15.918Z,20.47
2019-03-16T09:06:15.883Z,20.47
2019-03-16T09:07:15.872Z,20.47
2019-03-16T09:08:15.868Z,20.48
2019-03-16T09:09:15.852Z,20.48
2019-03-16T09:10:15.847Z,20.48
2019-03-16T09:11:16.125Z,20.48
2019-03-16T09:12:15.819Z,20.50
2019-03-16T09:13:15.801Z,20.48
2019-03-16T09:14:15.794Z,20.48
2019-03-16T09:15:15.779Z,20.48
2019-03-16T09:16:15.770Z,20.48
2019-03-16T09:17:15.803Z,20.50
2019-03-16T09:18:15.752Z,20.51
2019-03-16T09:19:15.736Z,20.50
2019-03-16T09:20:15.728Z,20.51
2019-03-16T09:21:15.719Z,20.50
2019-03-16T09:22:15.708Z,20.51
2019-03-16T09:23:15.729Z,20.50
2019-03-16T09:24:15.684Z,20.51
2019-03-16T09:25:15.677Z,20.52
2019-03-16T09:26:15.662Z,20.51
2019-03-16T09:27:15.673Z,20.51
2019-03-16T09:28:18.831Z,20.51
2019-03-16T09:29:15.642Z,20.51
2019-03-16T09:30:15.621Z,20.51
2019-03-16T09:31:15.612Z,20.52
2019-03-16T09:32:15.601Z,20.54
2019-03-16T09:33:15.726Z,20.52
2019-03-16T09:34:15.610Z,20.52
2019-03-16T09:35:15.853Z,20.52
2019-03-16T09:36:15.563Z,20.52
2019-03-16T09:37:15.564Z,20.52
2019-03-16T09:38:15.535Z,20.52
2019-03-16T09:39:15.529Z,20.51
2019-03-16T09:40:15.517Z,20.52
2019-03-16T09:41:15.540Z,20.51
2019-03-16T09:42:15.493Z,20.52
2019-03-16T09:43:15.502Z,20.52
2019-03-16T09:44:15.471Z,20.52
2019-03-16T09:45:15.464Z,20.52
2019-03-16T09:46:15.450Z,20.52
2019-03-16T09:47:15.470Z,20.52
2019-03-16T09:48:15.433Z,20.52
2019-03-16T09:49:15.420Z,20.52
2019-03-16T09:50:15.412Z,20.52
2019-03-16T09:51:15.399Z,20.54
2019-03-16T09:52:15.392Z,20.54
2019-03-16T09:53:15.406Z,20.55
2019-03-16T09:54:15.366Z,20.55
2019-03-16T09:55:15.386Z,20.55
2019-03-16T09:56:15.362Z,20.55
2019-03-16T09:57:15.333Z,20.57
2019-03-16T09:58:15.324Z,20.57
2019-03-16T09:59:15.683Z,20.57
2019-03-16T10:00:15.302Z,20.58
2019-03-16T10:01:15.522Z,20.58
2019-03-16T10:02:15.280Z,20.58
2019-03-16T10:03:15.276Z,20.61
2019-03-16T10:04:15.261Z,20.58
2019-03-16T10:05:15.541Z,20.59
2019-03-16T10:06:15.250Z,20.61
2019-03-16T10:07:15.229Z,20.59
2019-03-16T10:08:15.221Z,20.61
2019-03-16T10:09:15.210Z,20.59
2019-03-16T10:10:15.213Z,20.59
2019-03-16T10:11:15.218Z,20.61
2019-03-16T10:12:15.182Z,20.61
2019-03-16T10:13:15.162Z,20.62
2019-03-16T10:14:15.158Z,20.62
2019-03-16T10:15:15.143Z,20.61
2019-03-16T10:16:15.223Z,20.61
2019-03-16T10:17:15.120Z,20.61
2019-03-16T10:18:15.143Z,20.62
2019-03-16T10:19:15.104Z,20.62
2019-03-16T10:20:15.093Z,20.61
2019-03-16T10:21:15.084Z,20.61
2019-03-16T10:22:15.072Z,20.61
2019-03-16T10:23:15.102Z,20.61
2019-03-16T10:24:15.052Z,20.61
2019-03-16T10:25:15.045Z,20.61
2019-03-16T10:26:15.032Z,20.59
2019-03-16T10:27:15.022Z,20.61
2019-03-16T10:28:15.007Z,20.58
2019-03-16T10:29:15.021Z,20.61
2019-03-16T10:30:14.990Z,20.59
2019-03-16T10:31:14.972Z,20.59
2019-03-16T10:32:14.961Z,20.58
2019-03-16T10:33:14.957Z,20.58
2019-03-16T10:34:14.975Z,20.59
2019-03-16T10:35:14.931Z,20.59
2019-03-16T10:36:14.917Z,20.59
2019-03-16T10:37:14.915Z,20.59
2019-03-16T10:38:14.899Z,20.59
2019-03-16T10:39:14.906Z,20.59
2019-03-16T10:40:15.170Z,20.59
2019-03-16T10:41:14.864Z,20.61
2019-03-16T10:42:14.860Z,20.58
2019-03-16T10:43:14.845Z,20.61
2019-03-16T10:44:14.839Z,20.58
2019-03-16T10:45:14.825Z,20.58
2019-03-16T10:46:15.134Z,20.59
2019-03-16T10:47:14.800Z,20.59
2019-03-16T10:48:14.794Z,20.59
2019-03-16T10:49:14.778Z,20.61
2019-03-16T10:50:14.772Z,20.59
2019-03-16T10:51:14.759Z,20.59
2019-03-16T10:52:14.808Z,20.59
2019-03-16T10:53:14.743Z,20.62
2019-03-16T10:54:14.732Z,20.62
2019-03-16T10:55:14.717Z,20.59
2019-03-16T10:56:14.705Z,20.61
2019-03-16T10:57:14.698Z,20.61
2019-03-16T10:58:14.990Z,20.62
2019-03-16T10:59:14.672Z,20.62
2019-03-16T11:00:14.664Z,20.64
2019-03-16T11:01:14.655Z,20.62
2019-03-16T11:02:14.652Z,20.62
2019-03-16T11:03:14.633Z,20.62
2019-03-16T11:04:14.650Z,20.64
2019-03-16T11:05:14.617Z,20.62
2019-03-16T11:06:14.602Z,20.62
2019-03-16T11:07:14.589Z,20.62
2019-03-16T11:08:14.606Z,20.62
2019-03-16T11:09:14.566Z,20.62
2019-03-16T11:10:14.555Z,20.62
2019-03-16T11:11:14.548Z,20.64
2019-03-16T11:12:14.654Z,20.64
2019-03-16T11:13:14.522Z,20.64
2019-03-16T11:14:14.516Z,20.64
2019-03-16T11:15:14.503Z,20.64
2019-03-16T11:16:14.489Z,20.64
2019-03-16T11:17:14.485Z,20.66
2019-03-16T11:18:14.496Z,20.64
2019-03-16T11:19:14.458Z,20.64
2019-03-16T11:20:14.445Z,20.64
2019-03-16T11:21:14.435Z,20.66
2019-03-16T11:22:14.427Z,20.64
2019-03-16T11:23:14.419Z,20.64
2019-03-16T11:24:14.442Z,20.67
2019-03-16T11:25:14.419Z,20.67
2019-03-16T11:26:14.387Z,20.64
2019-03-16T11:27:16.965Z,20.67
2019-03-16T11:28:14.370Z,20.67
2019-03-16T11:29:14.355Z,20.66
2019-03-16T11:30:14.371Z,20.67
2019-03-16T11:31:14.329Z,20.66
2019-03-16T11:32:14.317Z,20.64
2019-03-16T11:33:14.317Z,20.66
2019-03-16T11:34:14.296Z,20.66
2019-03-16T11:35:14.285Z,20.66
2019-03-16T11:36:14.307Z,20.67
2019-03-16T11:37:14.265Z,20.66
2019-03-16T11:38:14.281Z,20.66
2019-03-16T11:39:14.246Z,20.66
2019-03-16T11:40:14.229Z,20.66
2019-03-16T11:41:14.225Z,20.67
2019-03-16T11:42:14.213Z,20.66
2019-03-16T11:43:14.206Z,20.67
2019-03-16T11:44:14.323Z,20.67
2019-03-16T11:45:16.901Z,20.67
2019-03-16T11:46:14.169Z,20.67
2019-03-16T11:47:14.156Z,20.67
2019-03-16T11:48:14.157Z,20.67
2019-03-16T11:49:14.135Z,20.66
2019-03-16T11:50:14.152Z,20.67
2019-03-16T11:51:14.122Z,20.67
2019-03-16T11:52:14.107Z,20.67
2019-03-16T11:53:14.092Z,20.66
2019-03-16T11:54:14.093Z,20.66
2019-03-16T11:55:14.100Z,20.66
2019-03-16T11:56:18.371Z,20.66
2019-03-16T11:57:14.051Z,20.66
2019-03-16T11:58:14.052Z,20.66
2019-03-16T11:59:21.623Z,20.66
2019-03-16T12:00:15.051Z,20.67
2019-03-16T12:01:14.003Z,20.66
2019-03-16T12:02:14.024Z,20.67
2019-03-16T12:03:13.986Z,20.66
2019-03-16T12:04:13.976Z,20.67
2019-03-16T12:05:13.964Z,20.67
2019-03-16T12:06:13.956Z,20.67
2019-03-16T12:07:13.971Z,20.67
2019-03-16T12:08:13.929Z,20.67
2019-03-16T12:09:13.921Z,20.67
2019-03-16T12:10:13.916Z,20.66
2019-03-16T12:11:13.902Z,20.66
2019-03-16T12:12:13.884Z,20.64
2019-03-16T12:13:17.768Z,20.66
2019-03-16T12:14:13.870Z,20.66
2019-03-16T12:15:13.856Z,20.66
2019-03-16T12:16:13.845Z,20.62
2019-03-16T12:17:13.835Z,20.64
2019-03-16T12:18:13.838Z,20.64
2019-03-16T12:19:14.101Z,20.64
2019-03-16T12:20:13.805Z,20.62
2019-03-16T12:21:13.794Z,20.62
2019-03-16T12:22:13.785Z,20.62
2019-03-16T12:23:13.774Z,20.61
2019-03-16T12:24:13.759Z,20.61
2019-03-16T12:25:13.786Z,20.61
2019-03-16T12:26:13.738Z,20.59
2019-03-16T12:27:13.723Z,20.58
2019-03-16T12:28:13.719Z,20.59
2019-03-16T12:29:13.710Z,20.59
2019-03-16T12:30:13.720Z,20.58
2019-03-16T12:31:13.702Z,20.57
2019-03-16T12:32:13.705Z,20.58
2019-03-16T12:33:13.658Z,20.57
2019-03-16T12:34:13.654Z,20.57
2019-03-16T12:35:13.642Z,20.57
2019-03-16T12:36:13.633Z,20.55
2019-03-16T12:37:13.647Z,20.55
2019-03-16T12:38:13.608Z,20.55
2019-03-16T12:39:13.603Z,20.55
2019-03-16T12:40:13.614Z,20.54
2019-03-16T12:41:13.583Z,20.52
2019-03-16T12:42:13.568Z,20.52
2019-03-16T12:43:13.551Z,20.52
2019-03-16T12:44:13.555Z,20.51
2019-03-16T12:45:13.560Z,20.51
2019-03-16T12:46:13.521Z,20.51
2019-03-16T12:47:13.542Z,20.50
2019-03-16T12:48:13.505Z,20.50
2019-03-16T12:49:13.494Z,20.50
2019-03-16T12:50:13.481Z,20.48
2019-03-16T12:51:13.475Z,20.47
2019-03-16T12:52:13.565Z,20.47